首页
METAR-TAF:

METAR-TAF

机场 :

泰德·史蒂文斯安克雷奇國際機場

安克拉治, 阿拉斯加州, 美国

纬度: 61-10-28N, 经度: 149-59-46W, 海拔: 44米

当前天气观测

该预报发布于16分钟前的17:53 UTC
风速5节,风向多变
温度 14°C
湿度 72%
气压 1009 hPa
能見度: 16.1公里
少量云层高于4000英尺
多云层高于6000英尺
阴天层高于8500英尺

METAR: PANC 081753Z VRB05KT 10SM FEW040 BKN060 OVC085 14/09 A2980 RMK AO2 SLP092 SH DSNT NW-N 60000 T01390094 10139 20128 53011

时间: 10:09 (18:09 UTC)

预报

该预报发布于49分钟前的17:20 UTC
预报有效从08日的 18点(UTC)到 09日的 24点(UTC)
风速6节,风向多变
能見度: 10公里
多云层高于6000英尺
从 08日的 2300点(UTC)
风速12节,风向南转南东,有时为18节阵风
能見度: 10公里
少量云层高于3500英尺
多云层高于5000英尺
从 09日的 0600点(UTC)
风速7节,风向南转南东
能見度: 10公里
少量云层高于3500英尺
多云层高于5000英尺
附近有阵雨
从 09日的 1000点(UTC)
风速7节,风向
能見度: 10公里
散云层高于3500英尺
阴天层高于5000英尺
附近有阵雨
从 09日的 2200点(UTC)
风速3节,风向多变
能見度: 10公里
阴天层高于4000英尺
小雨

TAF: PANC 081720Z 0818/0924 VRB06KT P6SM BKN060 FM082300 15012G18KT P6SM FEW035 BKN050 FM090600 15007KT P6SM VCSH FEW035 BKN050 FM091000 01007KT P6SM VCSH SCT035 OVC050 FM092200 VRB03KT P6SM -RA OVC040

超过4000个机场的气象观测和天气预报(METAR&TAF报告)。

可查询的气象台以黄色和红色小点在地图上表示。

将鼠标移到小点上方,可查看气象台名称。

然后点击查看天气观测和预报。

如需切换地图:点击带黑十字的绿色按钮放大地图;点击带横线的绿色按钮缩小地图;或者点击绿色箭头查看邻近地区的地图。


METAR-TAF: